createdAt,value
2023-04-11T00:00:24.941Z,1.60
2023-04-11T00:03:26.958Z,1.93
2023-04-11T00:06:29.240Z,1.50
2023-04-11T00:09:31.229Z,1.70
2023-04-11T00:12:33.182Z,1.70
2023-04-11T00:15:35.659Z,1.70
2023-04-11T00:18:40.079Z,1.97
2023-04-11T00:21:42.019Z,1.50
2023-04-11T00:24:44.867Z,1.70
2023-04-11T00:27:46.783Z,1.77
2023-04-11T00:30:48.997Z,1.70
2023-04-11T00:33:50.884Z,1.60
2023-04-11T00:36:53.144Z,1.30
2023-04-11T00:39:56.106Z,1.30
2023-04-11T00:42:58.101Z,2.00
2023-04-11T00:46:00.108Z,1.60
2023-04-11T00:49:02.852Z,1.30
2023-04-11T00:52:06.413Z,1.90
2023-04-11T00:55:09.066Z,1.43
2023-04-11T00:58:11.588Z,1.67
2023-04-11T01:01:15.090Z,1.40
2023-04-11T01:04:17.651Z,1.47
2023-04-11T01:07:20.513Z,1.50
2023-04-11T01:10:23.886Z,1.30
2023-04-11T01:13:26.034Z,1.47
2023-04-11T01:16:27.971Z,1.30
2023-04-11T01:19:31.217Z,1.50
2023-04-11T01:22:33.090Z,1.40
2023-04-11T01:25:35.092Z,1.40
2023-04-11T01:28:36.949Z,1.40
2023-04-11T01:31:39.577Z,1.40
2023-04-11T01:34:42.448Z,1.67
2023-04-11T01:37:45.049Z,1.40
2023-04-11T01:40:47.203Z,1.50
2023-04-11T01:43:49.150Z,1.20
2023-04-11T01:46:51.808Z,1.27
2023-04-11T01:49:54.355Z,2.27
2023-04-11T01:52:56.302Z,1.50
2023-04-11T01:55:59.112Z,1.60
2023-04-11T01:59:01.509Z,1.60
2023-04-11T02:02:05.002Z,1.37
2023-04-11T02:05:08.036Z,1.20
2023-04-11T02:08:10.141Z,1.50
2023-04-11T02:11:12.109Z,2.13
2023-04-11T02:14:18.559Z,1.77
2023-04-11T02:17:22.609Z,1.47
2023-04-11T02:20:24.546Z,1.43
2023-04-11T02:23:26.395Z,1.53
2023-04-11T02:26:28.320Z,1.17
2023-04-11T02:29:30.612Z,1.60
2023-04-11T02:32:38.292Z,1.50
2023-04-11T02:35:40.247Z,1.27
2023-04-11T02:38:42.720Z,1.53
2023-04-11T02:41:44.682Z,1.50
2023-04-11T02:44:46.681Z,1.70
2023-04-11T02:47:48.638Z,1.10
2023-04-11T02:50:50.947Z,1.20
2023-04-11T02:53:56.306Z,1.47
2023-04-11T02:56:58.881Z,1.47
2023-04-11T03:00:00.859Z,1.40
2023-04-11T03:03:04.063Z,1.33
2023-04-11T03:06:07.486Z,1.30
2023-04-11T03:09:09.494Z,1.50
2023-04-11T03:12:11.545Z,1.30
2023-04-11T03:15:15.748Z,1.30
2023-04-11T03:18:18.392Z,1.27
2023-04-11T03:21:21.627Z,1.37
2023-04-11T03:24:24.363Z,1.40
2023-04-11T03:27:27.510Z,1.30
2023-04-11T03:30:29.512Z,1.37
2023-04-11T03:33:31.991Z,1.50
2023-04-11T03:36:34.035Z,1.50
2023-04-11T03:39:36.662Z,1.20
2023-04-11T03:42:38.543Z,1.20
2023-04-11T03:45:40.551Z,1.43
2023-04-11T03:48:42.456Z,1.67
2023-04-11T03:51:44.578Z,1.67
2023-04-11T03:54:47.795Z,1.50
2023-04-11T03:57:49.961Z,1.33
2023-04-11T04:00:51.846Z,1.17
2023-04-11T04:03:54.344Z,1.23
2023-04-11T04:06:57.287Z,1.27
2023-04-11T04:10:00.392Z,1.40
2023-04-11T04:13:02.268Z,1.30
2023-04-11T04:16:04.542Z,1.40
2023-04-11T04:19:06.570Z,1.50
2023-04-11T04:22:12.311Z,1.33
2023-04-11T04:25:17.625Z,1.73
2023-04-11T04:28:22.743Z,1.40
2023-04-11T04:31:29.952Z,1.70
2023-04-11T04:34:32.040Z,1.73
2023-04-11T04:37:33.923Z,2.03
2023-04-11T04:40:38.316Z,1.60
2023-04-11T04:43:42.150Z,1.50
2023-04-11T04:46:44.328Z,1.37
2023-04-11T04:49:46.812Z,1.60
2023-04-11T04:52:49.249Z,1.50
2023-04-11T04:55:51.117Z,1.60
2023-04-11T04:58:53.480Z,1.37
2023-04-11T05:01:55.514Z,1.50
2023-04-11T05:04:57.568Z,1.30
2023-04-11T05:07:59.382Z,1.50
2023-04-11T05:11:02.044Z,1.60
2023-04-11T05:14:03.885Z,1.53
2023-04-11T05:17:07.694Z,1.40
2023-04-11T05:20:10.525Z,1.20
2023-04-11T05:23:12.437Z,1.30
2023-04-11T05:26:14.625Z,1.20
2023-04-11T05:29:16.533Z,1.23
2023-04-11T05:32:18.418Z,1.50
2023-04-11T05:35:20.404Z,1.53
2023-04-11T05:38:22.363Z,1.47
2023-04-11T05:41:24.329Z,1.10
2023-04-11T05:44:26.228Z,1.00
2023-04-11T05:47:28.749Z,1.80
2023-04-11T05:50:30.644Z,1.37
2023-04-11T05:53:33.000Z,1.33
2023-04-11T05:56:35.513Z,1.80
2023-04-11T05:59:38.118Z,1.70
2023-04-11T06:02:42.277Z,1.77
2023-04-11T06:05:44.680Z,1.40
2023-04-11T06:08:46.499Z,1.80
2023-04-11T06:11:48.482Z,1.60
2023-04-11T06:14:50.323Z,1.20
2023-04-11T06:17:56.426Z,1.40
2023-04-11T06:20:58.604Z,1.60
2023-04-11T06:24:09.941Z,1.50
2023-04-11T06:27:12.547Z,1.33
2023-04-11T06:30:15.141Z,1.40
2023-04-11T06:33:17.064Z,1.47
2023-04-11T06:36:19.065Z,1.60
2023-04-11T06:39:22.309Z,1.67
2023-04-11T06:42:24.284Z,1.40
2023-04-11T06:45:26.221Z,1.57
2023-04-11T06:48:28.190Z,1.30
2023-04-11T06:51:30.453Z,1.40
2023-04-11T06:54:32.429Z,1.20
2023-04-11T06:57:34.437Z,1.30
2023-04-11T07:00:36.547Z,1.83
2023-04-11T07:03:41.144Z,2.40
2023-04-11T07:06:43.835Z,1.93
2023-04-11T07:09:47.180Z,1.50
2023-04-11T07:12:49.109Z,1.50
2023-04-11T07:15:51.168Z,1.93
2023-04-11T07:18:54.172Z,1.20
2023-04-11T07:21:57.223Z,1.57
2023-04-11T07:24:59.143Z,1.27
2023-04-11T07:28:01.615Z,1.40
2023-04-11T07:31:09.071Z,1.40
2023-04-11T07:34:11.498Z,1.20
2023-04-11T07:37:13.439Z,1.23
2023-04-11T07:40:15.695Z,1.23
2023-04-11T07:43:17.656Z,1.40
2023-04-11T07:46:19.647Z,1.10
2023-04-11T07:49:22.631Z,1.53
2023-04-11T07:52:26.083Z,2.20
2023-04-11T07:55:28.916Z,2.20
2023-04-11T07:58:30.848Z,1.47
2023-04-11T08:01:33.455Z,1.50
2023-04-11T08:04:37.329Z,1.67
2023-04-11T08:07:40.018Z,1.47
2023-04-11T08:10:41.885Z,1.00
2023-04-11T08:13:43.771Z,1.40
2023-04-11T08:16:46.446Z,1.20
2023-04-11T08:19:49.737Z,0.90
2023-04-11T08:22:52.012Z,1.50
2023-04-11T08:25:54.584Z,1.53
2023-04-11T08:28:58.851Z,1.57
2023-04-11T08:32:01.519Z,1.30
2023-04-11T08:35:03.552Z,1.23
2023-04-11T08:38:08.855Z,1.10
2023-04-11T08:41:12.944Z,1.70
2023-04-11T08:44:15.055Z,1.33
2023-04-11T08:47:20.645Z,1.07
2023-04-11T08:50:23.153Z,1.20
2023-04-11T08:53:26.257Z,1.10
2023-04-11T08:56:28.510Z,1.53
2023-04-11T08:59:30.959Z,1.20
2023-04-11T09:02:33.277Z,1.40
2023-04-11T09:05:38.541Z,2.20
2023-04-11T09:08:41.063Z,2.37
2023-04-11T09:11:55.638Z,1.80
2023-04-11T09:14:58.060Z,2.13
2023-04-11T09:18:01.100Z,1.97
2023-04-11T09:21:11.832Z,1.53
2023-04-11T09:24:15.099Z,1.50
2023-04-11T09:27:19.969Z,1.60
2023-04-11T09:30:24.373Z,2.33
2023-04-11T09:33:30.165Z,1.60
2023-04-11T09:36:32.047Z,1.53
2023-04-11T09:39:34.270Z,1.43
2023-04-11T09:42:36.555Z,1.40
2023-04-11T09:45:51.619Z,1.80
2023-04-11T09:48:56.408Z,1.63
2023-04-11T09:51:58.497Z,1.33
2023-04-11T09:55:01.037Z,1.63
2023-04-11T09:58:04.992Z,1.43
2023-04-11T10:01:10.810Z,1.83
2023-04-11T10:04:14.017Z,1.57
2023-04-11T10:07:18.955Z,1.93
2023-04-11T10:10:23.279Z,1.47
2023-04-11T10:13:45.798Z,1.80
2023-04-11T10:17:20.079Z,1.50
2023-04-11T10:20:32.443Z,1.83
2023-04-11T10:24:10.189Z,2.40
2023-04-11T10:27:12.318Z,1.57
2023-04-11T10:30:15.068Z,1.27
2023-04-11T10:33:21.092Z,1.47
2023-04-11T10:36:23.961Z,2.07
2023-04-11T10:39:48.590Z,0.90
2023-04-11T10:42:50.995Z,0.83
2023-04-11T10:46:25.244Z,0.70
2023-04-11T10:49:36.972Z,0.50
2023-04-11T10:52:38.919Z,0.93
2023-04-11T10:55:46.576Z,1.00
2023-04-11T10:58:50.070Z,0.60
2023-04-11T11:01:56.092Z,0.80
2023-04-11T11:04:59.430Z,1.00
2023-04-11T11:08:01.725Z,0.30
2023-04-11T11:11:07.761Z,0.47
2023-04-11T11:14:09.786Z,0.30
2023-04-11T11:17:14.288Z,0.40
2023-04-11T11:20:19.987Z,0.60
2023-04-11T11:23:22.344Z,0.40
2023-04-11T11:26:45.003Z,0.30
2023-04-11T11:29:47.587Z,0.60
2023-04-11T11:32:49.872Z,0.40
2023-04-11T11:35:54.767Z,0.40
2023-04-11T11:38:57.556Z,0.30
2023-04-11T11:42:00.048Z,0.60
2023-04-11T11:45:34.990Z,0.80
2023-04-11T11:48:37.357Z,0.40
2023-04-11T11:51:44.031Z,0.20
2023-04-11T11:54:47.459Z,0.60
2023-04-11T11:57:50.420Z,0.30
2023-04-11T12:00:52.742Z,0.30
2023-04-11T12:03:55.268Z,0.30
2023-04-11T12:06:57.380Z,0.50
2023-04-11T12:10:08.951Z,0.27
2023-04-11T12:13:16.829Z,0.50
2023-04-11T12:16:22.455Z,0.30
2023-04-11T12:19:24.552Z,2.27
2023-04-11T12:22:26.833Z,0.50
2023-04-11T12:25:28.914Z,0.40
2023-04-11T12:28:30.938Z,0.50
2023-04-11T12:31:33.460Z,0.50
2023-04-11T12:34:35.999Z,0.30
2023-04-11T12:37:38.797Z,0.60
2023-04-11T12:40:40.985Z,0.70
2023-04-11T12:43:42.862Z,0.63
2023-04-11T12:46:44.917Z,0.50
2023-04-11T12:49:46.933Z,0.90
2023-04-11T12:52:49.703Z,0.73
2023-04-11T12:55:51.607Z,0.47
2023-04-11T12:58:54.724Z,0.67
2023-04-11T13:01:57.218Z,0.40
2023-04-11T13:05:01.041Z,0.50
2023-04-11T13:08:03.047Z,0.30
2023-04-11T13:11:08.964Z,0.40
2023-04-11T13:14:11.227Z,0.73
2023-04-11T13:17:13.745Z,1.43
2023-04-11T13:20:15.641Z,0.60
2023-04-11T13:23:17.685Z,1.73
2023-04-11T13:26:20.074Z,1.00
2023-04-11T13:29:22.790Z,1.17
2023-04-11T13:32:24.741Z,0.63
2023-04-11T13:35:27.334Z,0.90
2023-04-11T13:38:29.600Z,2.00
2023-04-11T13:41:32.779Z,0.90
2023-04-11T13:44:34.678Z,0.47
2023-04-11T13:47:38.686Z,0.70
2023-04-11T13:50:41.221Z,0.50
2023-04-11T13:53:43.502Z,0.70
2023-04-11T13:56:45.544Z,0.63
2023-04-11T13:59:47.485Z,0.50
2023-04-11T14:02:51.304Z,0.87
2023-04-11T14:05:54.526Z,0.90
2023-04-11T14:08:56.536Z,0.80
2023-04-11T14:11:58.789Z,0.63
2023-04-11T14:15:00.759Z,0.60
2023-04-11T14:18:05.205Z,0.70
2023-04-11T14:21:08.735Z,0.60
2023-04-11T14:24:11.044Z,0.60
2023-04-11T14:27:13.110Z,0.73
2023-04-11T14:30:15.726Z,2.93
2023-04-11T14:33:17.620Z,1.77
2023-04-11T14:36:20.036Z,1.03
2023-04-11T14:39:22.078Z,0.87
2023-04-11T14:42:24.258Z,1.00
2023-04-11T14:45:26.449Z,0.50
2023-04-11T14:48:29.827Z,0.80
2023-04-11T14:51:31.983Z,0.80
2023-04-11T14:54:33.913Z,0.80
2023-04-11T14:58:07.931Z,0.80
2023-04-11T15:01:10.808Z,0.70
2023-04-11T15:04:13.506Z,0.80
2023-04-11T15:07:15.739Z,0.70
2023-04-11T15:10:22.752Z,0.77
2023-04-11T15:13:26.022Z,0.87
2023-04-11T15:16:27.972Z,1.07
2023-04-11T15:19:30.136Z,0.70
2023-04-11T15:22:32.450Z,1.00
2023-04-11T15:25:34.748Z,0.90
2023-04-11T15:28:38.147Z,0.57
2023-04-11T15:31:40.158Z,0.50
2023-04-11T15:34:42.955Z,0.90
2023-04-11T15:37:44.937Z,0.80
2023-04-11T15:40:54.386Z,1.00
2023-04-11T15:43:57.094Z,0.67
2023-04-11T15:46:59.297Z,1.30
2023-04-11T15:50:04.444Z,1.17
2023-04-11T15:53:06.390Z,0.70
2023-04-11T15:56:08.717Z,0.83
2023-04-11T15:59:13.155Z,0.70
2023-04-11T16:02:18.018Z,0.83
2023-04-11T16:05:21.095Z,0.80
2023-04-11T16:08:23.706Z,0.80
2023-04-11T16:11:25.597Z,0.80
2023-04-11T16:14:29.144Z,0.80
2023-04-11T16:17:31.139Z,0.80
2023-04-11T16:20:34.213Z,1.00
2023-04-11T16:23:36.269Z,0.67
2023-04-11T16:26:39.268Z,0.70
2023-04-11T16:29:42.963Z,0.73
2023-04-11T16:32:47.023Z,0.90
2023-04-11T16:35:49.094Z,0.60
2023-04-11T16:38:51.601Z,1.23
2023-04-11T16:41:55.000Z,0.80
2023-04-11T16:44:58.232Z,0.70
2023-04-11T16:48:00.580Z,0.93
2023-04-11T16:51:03.022Z,0.90
2023-04-11T16:54:09.885Z,0.73
2023-04-11T16:57:12.365Z,0.90
2023-04-11T17:00:20.474Z,0.80
2023-04-11T17:03:23.132Z,0.73
2023-04-11T17:06:26.350Z,0.77
2023-04-11T17:09:29.930Z,0.63
2023-04-11T17:12:32.939Z,1.00
2023-04-11T17:15:35.295Z,0.90
2023-04-11T17:18:38.197Z,1.00
2023-04-11T17:21:41.724Z,0.93
2023-04-11T17:24:45.720Z,0.83
2023-04-11T17:27:47.930Z,0.90
2023-04-11T17:30:50.532Z,1.10
2023-04-11T17:33:52.505Z,1.20
2023-04-11T17:36:54.961Z,1.47
2023-04-11T17:39:57.013Z,0.87
2023-04-11T17:43:00.137Z,1.97
2023-04-11T17:46:02.646Z,3.20
2023-04-11T17:49:04.775Z,3.10
2023-04-11T17:52:07.288Z,1.27
2023-04-11T17:55:14.471Z,1.17
2023-04-11T17:58:17.966Z,1.30
2023-04-11T18:01:20.126Z,1.07
2023-04-11T18:04:22.244Z,1.23
2023-04-11T18:07:24.891Z,1.20
2023-04-11T18:10:30.783Z,1.03
2023-04-11T18:13:32.596Z,1.30
2023-04-11T18:16:35.937Z,1.67
2023-04-11T18:19:38.078Z,1.60
2023-04-11T18:22:41.365Z,2.00
2023-04-11T18:25:43.334Z,1.70
2023-04-11T18:28:47.766Z,1.07
2023-04-11T18:31:49.890Z,1.40
2023-04-11T18:34:53.162Z,1.33
2023-04-11T18:37:56.961Z,1.30
2023-04-11T18:41:05.309Z,1.10
2023-04-11T18:44:10.035Z,1.67
2023-04-11T18:47:17.455Z,0.90
2023-04-11T18:50:20.907Z,1.83
2023-04-11T18:53:25.659Z,0.90
2023-04-11T18:56:27.927Z,1.40
2023-04-11T18:59:33.932Z,1.50
2023-04-11T19:02:40.533Z,1.40
2023-04-11T19:05:43.941Z,1.40
2023-04-11T19:08:46.276Z,0.90
2023-04-11T19:11:49.465Z,0.97
2023-04-11T19:14:52.698Z,1.10
2023-04-11T19:17:55.274Z,1.10
2023-04-11T19:20:58.873Z,1.40
2023-04-11T19:24:01.031Z,0.70
2023-04-11T19:27:04.761Z,0.73
2023-04-11T19:30:10.813Z,0.87
2023-04-11T19:33:13.092Z,1.50
2023-04-11T19:36:16.120Z,1.27
2023-04-11T19:39:18.487Z,0.90
2023-04-11T19:42:20.909Z,1.10
2023-04-11T19:45:22.786Z,2.00
2023-04-11T19:48:24.795Z,0.87
2023-04-11T19:51:27.792Z,0.93
2023-04-11T19:54:32.022Z,0.80
2023-04-11T19:57:35.223Z,0.70
2023-04-11T20:00:42.033Z,0.80
2023-04-11T20:03:45.093Z,0.93
2023-04-11T20:06:47.096Z,1.60
2023-04-11T20:09:49.058Z,0.80
2023-04-11T20:12:52.656Z,0.70
2023-04-11T20:15:54.600Z,0.80
2023-04-11T20:18:56.620Z,0.67
2023-04-11T20:22:01.126Z,0.70
2023-04-11T20:25:09.278Z,0.90
2023-04-11T20:28:11.536Z,0.87
2023-04-11T20:31:16.424Z,1.37
2023-04-11T20:34:19.738Z,1.57
2023-04-11T20:37:22.736Z,1.87
2023-04-11T20:40:27.555Z,2.20
2023-04-11T20:43:33.476Z,1.10
2023-04-11T20:46:41.219Z,0.90
2023-04-11T20:49:47.916Z,1.00
2023-04-11T20:52:57.321Z,0.70
2023-04-11T20:56:10.169Z,0.67
2023-04-11T20:59:16.849Z,1.50
2023-04-11T21:02:19.479Z,1.30
2023-04-11T21:05:25.281Z,1.37
2023-04-11T21:08:31.745Z,0.90
2023-04-11T21:11:34.705Z,0.53
2023-04-11T21:14:37.217Z,1.07
2023-04-11T21:17:39.821Z,0.80
2023-04-11T21:20:42.017Z,1.10
2023-04-11T21:23:44.000Z,1.40
2023-04-11T21:26:48.256Z,1.43
2023-04-11T21:29:50.281Z,1.17
2023-04-11T21:32:52.623Z,1.03
2023-04-11T21:35:55.419Z,1.40
2023-04-11T21:38:58.927Z,0.90
2023-04-11T21:42:01.613Z,1.10
2023-04-11T21:45:03.914Z,1.17
2023-04-11T21:48:05.948Z,0.77
2023-04-11T21:51:09.068Z,1.43
2023-04-11T21:54:11.240Z,1.07
2023-04-11T21:57:13.390Z,1.00
2023-04-11T22:00:15.722Z,1.30
2023-04-11T22:03:20.992Z,0.70
2023-04-11T22:06:24.499Z,1.20
2023-04-11T22:09:26.757Z,1.93
2023-04-11T22:12:29.299Z,1.97
2023-04-11T22:15:33.558Z,2.17
2023-04-11T22:18:47.631Z,1.47
2023-04-11T22:21:56.596Z,1.60
2023-04-11T22:24:59.396Z,1.33
2023-04-11T22:28:02.930Z,1.13
2023-04-11T22:31:05.468Z,0.93
2023-04-11T22:34:10.854Z,1.00
2023-04-11T22:37:12.696Z,0.93
2023-04-11T22:40:18.113Z,0.83
2023-04-11T22:43:20.036Z,1.00
2023-04-11T22:46:21.925Z,0.90
2023-04-11T22:49:23.832Z,1.00
2023-04-11T22:52:26.626Z,0.90
2023-04-11T22:55:29.858Z,1.17
2023-04-11T22:58:31.777Z,0.60
2023-04-11T23:01:34.368Z,1.00
2023-04-11T23:04:37.173Z,0.90
2023-04-11T23:07:39.518Z,0.80
2023-04-11T23:10:41.809Z,0.70
2023-04-11T23:13:44.196Z,0.83
2023-04-11T23:16:49.543Z,0.60
2023-04-11T23:19:51.516Z,0.80
2023-04-11T23:22:54.241Z,1.23
2023-04-11T23:25:56.847Z,0.97
2023-04-11T23:29:01.588Z,1.00
2023-04-11T23:32:03.504Z,1.97
2023-04-11T23:35:07.117Z,2.10
2023-04-11T23:38:10.698Z,1.40
2023-04-11T23:41:13.032Z,1.13
2023-04-11T23:44:14.896Z,1.70
2023-04-11T23:47:17.501Z,1.03
2023-04-11T23:50:19.928Z,1.50
2023-04-11T23:53:22.351Z,1.00
2023-04-11T23:56:24.281Z,0.87
2023-04-11T23:59:26.251Z,1.70
